Time;durP1;ratioP1;P1;durP2;ratioP2;P2;SDS_P1;SDS_P2;PMS_P1;PMS_P2;Temp;Humidity;BMP_temperature;BMP_pressure;BME280_temperature;BME280_humidity;BME280_pressure;Samples;Min_cycle;Max_cycle;Signal;HPM_P1;HPM_P2
2023/07/18 00:00:41;;;;;;;9.00;4.70;;;;;;;;;;5074230;28;20199;-55
2023/07/18 00:03:07;;;;;;;9.00;5.23;;;;;;;;;;5074052;28;20188;-56
2023/07/18 00:05:34;;;;;;;5.27;4.67;;;;;;;;;;5072567;28;20230;-56
2023/07/18 00:08:00;;;;;;;6.67;4.43;;;;;;;;;;5073940;28;20715;-56
2023/07/18 00:10:27;;;;;;;7.23;4.70;;;;;;;;;;5073691;28;20216;-56
2023/07/18 00:12:54;;;;;;;9.73;5.03;;;;;;;;;;5073716;28;20277;-56
2023/07/18 00:15:20;;;;;;;8.77;4.77;;;;;;;;;;5073546;28;20204;-56
2023/07/18 00:17:46;;;;;;;7.57;4.50;;;;;;;;;;5073912;28;20201;-56
2023/07/18 00:20:17;;;;;;;8.80;5.43;;;;;;;;;;5073676;28;20196;-57
2023/07/18 00:22:44;;;;;;;7.97;5.23;;;;;;;;;;5073519;28;20200;-56
2023/07/18 00:25:13;;;;;;;8.93;5.67;;;;;;;;;;5073352;28;20196;-56
2023/07/18 00:27:41;;;;;;;7.87;4.80;;;;;;;;;;5073785;28;20234;-56
2023/07/18 00:30:07;;;;;;;10.20;5.90;;;;;;;;;;5073432;28;20245;-57
2023/07/18 00:32:33;;;;;;;9.17;5.50;;;;;;;;;;5073129;28;20654;-56
2023/07/18 00:34:59;;;;;;;9.67;5.07;;;;;;;;;;5073317;28;20666;-57
2023/07/18 00:37:26;;;;;;;9.50;5.53;;;;;;;;;;5073274;28;20269;-56
2023/07/18 00:39:53;;;;;;;8.07;5.10;;;;;;;;;;5073583;28;20561;-55
2023/07/18 00:42:19;;;;;;;10.20;5.67;;;;;;;;;;5072836;28;20690;-57
2023/07/18 00:44:49;;;;;;;7.30;5.30;;;;;;;;;;5073157;28;20195;-57
2023/07/18 00:47:15;;;;;;;9.00;5.57;;;;;;;;;;5072982;28;20200;-56
2023/07/18 00:49:42;;;;;;;7.17;5.33;;;;;;;;;;5073089;28;20654;-56
2023/07/18 00:52:08;;;;;;;6.27;5.33;;;;;;;;;;5073132;28;20278;-56
2023/07/18 00:54:35;;;;;;;9.17;5.73;;;;;;;;;;5072694;28;20259;-56
2023/07/18 00:57:01;;;;;;;8.60;5.47;;;;;;;;;;5072798;28;20200;-56
2023/07/18 00:59:28;;;;;;;9.83;5.80;;;;;;;;;;5072665;28;20678;-55
2023/07/18 01:01:55;;;;;;;8.23;5.13;;;;;;;;;;5072948;28;20661;-56
2023/07/18 01:04:21;;;;;;;10.97;5.60;;;;;;;;;;5072489;28;20208;-56
2023/07/18 01:06:47;;;;;;;8.60;4.80;;;;;;;;;;5072737;28;20303;-56
2023/07/18 01:09:13;;;;;;;6.27;3.83;;;;;;;;;;5072681;28;20196;-56
2023/07/18 01:11:39;;;;;;;6.37;4.87;;;;;;;;;;5072591;28;20196;-56
2023/07/18 01:14:05;;;;;;;5.73;4.37;;;;;;;;;;5072448;28;20227;-56
2023/07/18 01:16:32;;;;;;;5.10;3.93;;;;;;;;;;5072062;28;20286;-56
2023/07/18 01:18:59;;;;;;;6.30;4.13;;;;;;;;;;5072437;28;20650;-56
2023/07/18 01:21:27;;;;;;;4.30;3.90;;;;;;;;;;5072332;28;20682;-56
2023/07/18 01:23:53;;;;;;;5.03;4.30;;;;;;;;;;5072656;28;20213;-57
2023/07/18 01:26:19;;;;;;;6.57;3.57;;;;;;;;;;5072146;28;20200;-56
2023/07/18 01:28:45;;;;;;;5.83;4.50;;;;;;;;;;5072435;28;20602;-56
2023/07/18 01:31:11;;;;;;;6.23;3.87;;;;;;;;;;5072252;28;20286;-56
2023/07/18 01:33:37;;;;;;;6.80;3.93;;;;;;;;;;5072343;28;20589;-56
2023/07/18 01:36:04;;;;;;;7.43;4.03;;;;;;;;;;5072294;28;20191;-57
2023/07/18 01:38:31;;;;;;;5.03;3.70;;;;;;;;;;5072010;28;20713;-57
2023/07/18 01:40:57;;;;;;;4.47;3.80;;;;;;;;;;5071858;28;20658;-57
2023/07/18 01:43:23;;;;;;;5.47;3.83;;;;;;;;;;5071939;28;20314;-56
2023/07/18 01:45:49;;;;;;;7.50;3.93;;;;;;;;;;5072041;28;20373;-56
2023/07/18 01:48:16;;;;;;;7.73;3.67;;;;;;;;;;5071783;28;20209;-56
2023/07/18 01:50:43;;;;;;;5.43;4.40;;;;;;;;;;5071965;28;20199;-57
2023/07/18 01:53:10;;;;;;;5.57;3.83;;;;;;;;;;5071949;28;20273;-55
2023/07/18 01:55:38;;;;;;;6.50;4.10;;;;;;;;;;5071781;28;20282;-56
2023/07/18 01:58:04;;;;;;;6.03;3.80;;;;;;;;;;5071887;28;20219;-57
2023/07/18 02:00:31;;;;;;;8.47;3.50;;;;;;;;;;5071843;28;20289;-57
2023/07/18 02:02:57;;;;;;;6.27;3.70;;;;;;;;;;5071830;28;20230;-56
2023/07/18 02:05:24;;;;;;;5.70;3.47;;;;;;;;;;5071670;28;20215;-56
2023/07/18 02:07:50;;;;;;;6.87;3.83;;;;;;;;;;5071765;28;20199;-56
2023/07/18 02:10:19;;;;;;;6.73;4.60;;;;;;;;;;5071437;28;20745;-56
2023/07/18 02:12:46;;;;;;;4.63;4.00;;;;;;;;;;5071573;28;20204;-56
2023/07/18 02:15:15;;;;;;;8.40;5.17;;;;;;;;;;5071607;28;20245;-56
2023/07/18 02:17:42;;;;;;;9.73;5.00;;;;;;;;;;5071747;28;20200;-56
2023/07/18 02:20:11;;;;;;;11.97;4.93;;;;;;;;;;5071687;28;20199;-56
2023/07/18 02:22:39;;;;;;;11.90;5.73;;;;;;;;;;5071513;28;20199;-56
2023/07/18 02:25:05;;;;;;;8.93;6.30;;;;;;;;;;5071398;28;20615;-56
2023/07/18 02:27:32;;;;;;;14.53;6.13;;;;;;;;;;5071646;28;20207;-56
2023/07/18 02:30:03;;;;;;;9.47;5.43;;;;;;;;;;5075781;28;20286;-56
2023/07/18 02:32:30;;;;;;;9.87;6.43;;;;;;;;;;5075578;28;20231;-55
2023/07/18 02:34:56;;;;;;;8.40;6.13;;;;;;;;;;5075506;28;20727;-56
2023/07/18 02:37:24;;;;;;;10.43;6.67;;;;;;;;;;5075459;28;20290;-56
2023/07/18 02:39:50;;;;;;;11.00;7.40;;;;;;;;;;5075541;28;20200;-56
2023/07/18 02:42:17;;;;;;;9.13;6.60;;;;;;;;;;5075184;28;20202;-56
2023/07/18 02:44:43;;;;;;;8.13;6.27;;;;;;;;;;5075483;28;20192;-57
2023/07/18 02:47:11;;;;;;;11.27;6.47;;;;;;;;;;5075451;28;20248;-56
2023/07/18 02:49:37;;;;;;;12.00;7.33;;;;;;;;;;5075250;28;20212;-56
2023/07/18 02:52:03;;;;;;;12.20;8.07;;;;;;;;;;5075333;28;20191;-56
2023/07/18 02:54:29;;;;;;;9.83;7.40;;;;;;;;;;5075001;28;20226;-57
2023/07/18 02:56:56;;;;;;;15.17;6.63;;;;;;;;;;5075309;28;20286;-56
2023/07/18 02:59:22;;;;;;;8.67;7.00;;;;;;;;;;5075037;28;20244;-56
2023/07/18 03:01:49;;;;;;;10.60;7.47;;;;;;;;;;5075155;28;20195;-56
2023/07/18 03:04:17;;;;;;;17.13;7.90;;;;;;;;;;5075189;28;21001;-56
2023/07/18 03:06:43;;;;;;;13.70;8.00;;;;;;;;;;5074762;28;20211;-56
2023/07/18 03:09:09;;;;;;;13.07;7.93;;;;;;;;;;5075042;28;20191;-56
2023/07/18 03:11:35;;;;;;;13.97;8.67;;;;;;;;;;5074565;28;20541;-55
2023/07/18 03:14:01;;;;;;;12.00;7.57;;;;;;;;;;5074949;28;20237;-57
2023/07/18 03:16:27;;;;;;;13.23;8.50;;;;;;;;;;5074653;28;20290;-56
2023/07/18 03:18:54;;;;;;;22.20;9.13;;;;;;;;;;5074819;28;20226;-56
2023/07/18 03:21:21;;;;;;;14.07;8.60;;;;;;;;;;5074362;28;20199;-56
2023/07/18 03:23:47;;;;;;;13.83;9.90;;;;;;;;;;5074285;28;20241;-56
2023/07/18 03:26:13;;;;;;;14.27;8.97;;;;;;;;;;5074479;28;20191;-56
2023/07/18 03:28:39;;;;;;;11.47;8.77;;;;;;;;;;5074613;28;20223;-56
2023/07/18 03:31:05;;;;;;;17.57;9.50;;;;;;;;;;5074387;28;20257;-55
2023/07/18 03:33:31;;;;;;;13.67;9.17;;;;;;;;;;5074246;28;20247;-56
2023/07/18 03:35:58;;;;;;;15.60;9.70;;;;;;;;;;5074394;28;20195;-56
2023/07/18 03:38:25;;;;;;;12.47;8.40;;;;;;;;;;5074383;28;20221;-56
2023/07/18 03:40:51;;;;;;;11.93;8.30;;;;;;;;;;5074239;28;20298;-56
2023/07/18 03:43:17;;;;;;;10.03;7.57;;;;;;;;;;5074074;28;20323;-56
2023/07/18 03:45:45;;;;;;;10.30;7.43;;;;;;;;;;5074014;28;20554;-56
2023/07/18 03:48:11;;;;;;;13.20;7.33;;;;;;;;;;5074385;28;20199;-56
2023/07/18 03:50:38;;;;;;;12.90;7.33;;;;;;;;;;5074086;28;20211;-56
2023/07/18 03:53:04;;;;;;;9.57;6.90;;;;;;;;;;5074079;28;20644;-56
2023/07/18 03:55:31;;;;;;;11.83;6.83;;;;;;;;;;5073885;28;20749;-56
2023/07/18 03:57:57;;;;;;;9.20;6.90;;;;;;;;;;5074233;28;20693;-56
2023/07/18 04:00:23;;;;;;;11.90;6.70;;;;;;;;;;5074048;28;20214;-56
2023/07/18 04:02:49;;;;;;;9.37;6.67;;;;;;;;;;5073842;28;20645;-56
2023/07/18 04:05:16;;;;;;;10.90;7.17;;;;;;;;;;5073723;28;20250;-56
2023/07/18 04:07:43;;;;;;;11.63;7.40;;;;;;;;;;5073925;28;20203;-56
2023/07/18 04:10:11;;;;;;;17.17;8.03;;;;;;;;;;5073914;28;20269;-56
2023/07/18 04:12:38;;;;;;;14.00;8.57;;;;;;;;;;5073712;28;20204;-56
2023/07/18 04:15:05;;;;;;;16.40;8.53;;;;;;;;;;5073609;28;20239;-56
2023/07/18 04:17:31;;;;;;;17.90;9.43;;;;;;;;;;5073476;28;20210;-56
2023/07/18 04:20:01;;;;;;;14.97;10.80;;;;;;;;;;5073883;28;20199;-56
2023/07/18 04:22:29;;;;;;;14.20;10.90;;;;;;;;;;5073379;28;20196;-56
2023/07/18 04:24:55;;;;;;;17.10;11.00;;;;;;;;;;5073429;28;20688;-56
2023/07/18 04:27:22;;;;;;;20.33;11.27;;;;;;;;;;5073404;28;20223;-57
2023/07/18 04:29:50;;;;;;;19.27;11.37;;;;;;;;;;5073339;28;20749;-56
2023/07/18 04:32:17;;;;;;;15.50;10.93;;;;;;;;;;5073344;28;20196;-56
2023/07/18 04:34:43;;;;;;;17.20;11.00;;;;;;;;;;5073223;28;20223;-57
2023/07/18 04:37:09;;;;;;;18.13;10.93;;;;;;;;;;5073607;28;20196;-57
2023/07/18 04:39:35;;;;;;;16.03;10.47;;;;;;;;;;5072995;28;20658;-56
2023/07/18 04:42:01;;;;;;;16.13;11.57;;;;;;;;;;5073152;28;20210;-56
2023/07/18 04:44:27;;;;;;;16.17;11.07;;;;;;;;;;5072871;28;20257;-57
2023/07/18 04:46:55;;;;;;;22.23;11.90;;;;;;;;;;5073029;28;20654;-56
2023/07/18 04:49:22;;;;;;;18.20;12.03;;;;;;;;;;5072913;28;20606;-57
2023/07/18 04:51:48;;;;;;;20.87;11.63;;;;;;;;;;5072274;28;20760;-57
2023/07/18 04:54:14;;;;;;;18.77;10.73;;;;;;;;;;5072721;28;20242;-57
2023/07/18 04:56:40;;;;;;;17.13;10.43;;;;;;;;;;5072890;28;20203;-56
2023/07/18 04:59:06;;;;;;;16.87;11.13;;;;;;;;;;5072778;28;20215;-56
2023/07/18 05:01:32;;;;;;;18.47;10.67;;;;;;;;;;5072629;28;20254;-57
2023/07/18 05:04:00;;;;;;;18.17;11.30;;;;;;;;;;5072683;28;20214;-56
2023/07/18 05:06:26;;;;;;;18.50;11.47;;;;;;;;;;5072569;28;20227;-56
2023/07/18 05:08:53;;;;;;;18.97;11.23;;;;;;;;;;5072700;28;20200;-57
2023/07/18 05:11:19;;;;;;;18.33;11.43;;;;;;;;;;5072348;28;20211;-57
2023/07/18 05:13:45;;;;;;;18.37;11.30;;;;;;;;;;5072349;28;20223;-57
2023/07/18 05:16:11;;;;;;;16.87;11.03;;;;;;;;;;5072600;28;20206;-57
2023/07/18 05:18:37;;;;;;;17.37;11.97;;;;;;;;;;5072341;28;20583;-56
2023/07/18 05:21:04;;;;;;;19.90;12.07;;;;;;;;;;5072357;28;20209;-56
2023/07/18 05:23:30;;;;;;;13.97;10.30;;;;;;;;;;5072150;28;20282;-56
2023/07/18 05:25:57;;;;;;;14.03;9.90;;;;;;;;;;5072318;28;20294;-56
2023/07/18 05:28:23;;;;;;;13.60;10.70;;;;;;;;;;5072184;28;20220;-56
2023/07/18 05:30:49;;;;;;;17.07;10.60;;;;;;;;;;5072273;28;20242;-56
2023/07/18 05:33:15;;;;;;;13.67;10.13;;;;;;;;;;5071970;28;20269;-56
2023/07/18 05:35:41;;;;;;;17.93;10.40;;;;;;;;;;5072006;28;20203;-56
2023/07/18 05:38:08;;;;;;;16.47;10.50;;;;;;;;;;5072249;28;20199;-55
2023/07/18 05:40:34;;;;;;;15.50;9.97;;;;;;;;;;5071825;28;20685;-56
2023/07/18 05:43:00;;;;;;;15.47;10.03;;;;;;;;;;5071695;28;20730;-56
2023/07/18 05:45:26;;;;;;;11.13;9.13;;;;;;;;;;5071866;28;20195;-56
2023/07/18 05:47:52;;;;;;;15.10;9.63;;;;;;;;;;5072146;28;20201;-57
2023/07/18 05:50:18;;;;;;;17.13;9.43;;;;;;;;;;5071867;28;20701;-57
2023/07/18 05:52:45;;;;;;;16.87;8.60;;;;;;;;;;5071791;28;20215;-57
2023/07/18 05:55:13;;;;;;;12.30;8.40;;;;;;;;;;5071822;28;20555;-58
2023/07/18 05:57:39;;;;;;;14.37;8.40;;;;;;;;;;5071790;28;20632;-58
2023/07/18 06:00:06;;;;;;;13.70;7.27;;;;;;;;;;5071741;28;20203;-58
2023/07/18 06:02:34;;;;;;;13.20;7.80;;;;;;;;;;5070781;28;20568;-59
2023/07/18 06:05:00;;;;;;;12.43;6.50;;;;;;;;;;5071700;28;20222;-58
2023/07/18 06:07:26;;;;;;;11.27;6.60;;;;;;;;;;5071686;28;20691;-59
2023/07/18 06:09:52;;;;;;;10.10;6.20;;;;;;;;;;5071757;28;20290;-57
2023/07/18 06:12:20;;;;;;;8.83;6.20;;;;;;;;;;5071605;28;20191;-57
2023/07/18 06:14:46;;;;;;;10.90;6.00;;;;;;;;;;5071250;28;20269;-62
2023/07/18 06:17:12;;;;;;;9.57;5.10;;;;;;;;;;5071555;28;20222;-60
2023/07/18 06:19:38;;;;;;;11.03;5.20;;;;;;;;;;5071450;28;20230;-57
2023/07/18 06:22:05;;;;;;;8.23;4.77;;;;;;;;;;5071593;28;20226;-56
2023/07/18 06:24:31;;;;;;;7.60;4.43;;;;;;;;;;5071656;28;20666;-56
2023/07/18 06:26:57;;;;;;;10.50;4.57;;;;;;;;;;5071659;28;20204;-56
2023/07/18 06:29:25;;;;;;;6.17;4.27;;;;;;;;;;5071744;28;20199;-56
2023/07/18 06:31:51;;;;;;;6.53;3.63;;;;;;;;;;5071539;28;20204;-56
2023/07/18 06:34:17;;;;;;;8.43;3.93;;;;;;;;;;5071630;28;20261;-56
2023/07/18 06:36:45;;;;;;;8.20;3.83;;;;;;;;;;5071640;28;20230;-56
2023/07/18 06:39:11;;;;;;;9.57;4.13;;;;;;;;;;5071649;28;20196;-56
2023/07/18 06:41:37;;;;;;;6.60;3.60;;;;;;;;;;5071606;28;20187;-56
2023/07/18 06:44:08;;;;;;;6.37;4.00;;;;;;;;;;5071463;28;20238;-56
2023/07/18 06:46:36;;;;;;;7.57;3.20;;;;;;;;;;5071419;28;20195;-56
2023/07/18 06:49:02;;;;;;;6.17;3.37;;;;;;;;;;5071527;28;20755;-55
2023/07/18 06:51:28;;;;;;;6.90;3.70;;;;;;;;;;5071357;28;20219;-56
2023/07/18 06:53:54;;;;;;;6.17;3.40;;;;;;;;;;5071482;28;20629;-56
2023/07/18 06:56:20;;;;;;;6.83;3.23;;;;;;;;;;5071396;28;20200;-56
2023/07/18 06:58:46;;;;;;;7.97;3.03;;;;;;;;;;5071518;28;20200;-56
2023/07/18 07:01:12;;;;;;;5.77;3.03;;;;;;;;;;5071354;28;20253;-54
2023/07/18 07:03:42;;;;;;;11.43;3.33;;;;;;;;;;5071380;28;20558;-55
2023/07/18 07:06:10;;;;;;;9.50;3.20;;;;;;;;;;5071391;28;20231;-55
2023/07/18 07:08:36;;;;;;;8.07;3.70;;;;;;;;;;5071246;28;20564;-55
2023/07/18 07:11:06;;;;;;;6.30;3.57;;;;;;;;;;5071322;28;21054;-55
2023/07/18 07:13:32;;;;;;;7.53;3.23;;;;;;;;;;5071106;28;20269;-54
2023/07/18 07:15:58;;;;;;;7.17;3.37;;;;;;;;;;5075054;28;20635;-55
2023/07/18 07:18:24;;;;;;;8.00;3.10;;;;;;;;;;5074998;28;20276;-55
2023/07/18 07:20:51;;;;;;;8.53;3.33;;;;;;;;;;5074967;28;20234;-55
2023/07/18 07:23:17;;;;;;;7.97;2.80;;;;;;;;;;5074829;28;20272;-56
2023/07/18 07:25:43;;;;;;;5.23;2.50;;;;;;;;;;5074593;28;20645;-55
2023/07/18 07:28:09;;;;;;;8.80;2.83;;;;;;;;;;5074938;28;20189;-54
2023/07/18 07:30:35;;;;;;;4.90;2.70;;;;;;;;;;5074672;28;20198;-55
2023/07/18 07:33:02;;;;;;;6.57;2.93;;;;;;;;;;5074512;28;20217;-55
2023/07/18 07:35:29;;;;;;;9.27;2.87;;;;;;;;;;5074490;28;20206;-55
2023/07/18 07:37:57;;;;;;;6.27;2.70;;;;;;;;;;5074741;28;20210;-54
2023/07/18 07:40:23;;;;;;;6.47;2.97;;;;;;;;;;5074411;28;20203;-55
2023/07/18 07:42:49;;;;;;;7.23;2.90;;;;;;;;;;5074191;28;20238;-55
2023/07/18 07:45:16;;;;;;;7.27;3.13;;;;;;;;;;5074473;28;20252;-57
2023/07/18 07:47:43;;;;;;;6.97;2.73;;;;;;;;;;5074628;28;20666;-55
2023/07/18 07:50:09;;;;;;;4.73;2.47;;;;;;;;;;5074523;28;20192;-55
2023/07/18 07:52:35;;;;;;;8.50;2.50;;;;;;;;;;5074252;28;20210;-55
2023/07/18 07:55:03;;;;;;;7.23;2.33;;;;;;;;;;5074166;28;20255;-55
2023/07/18 07:57:29;;;;;;;7.13;2.73;;;;;;;;;;5074117;28;20241;-55
2023/07/18 07:59:55;;;;;;;6.03;2.60;;;;;;;;;;5074445;28;20240;-55
2023/07/18 08:02:22;;;;;;;8.63;2.63;;;;;;;;;;5074130;28;20222;-56
2023/07/18 08:04:48;;;;;;;5.77;2.60;;;;;;;;;;5073980;28;20933;-55
2023/07/18 08:07:14;;;;;;;4.10;2.07;;;;;;;;;;5074092;28;20209;-56
2023/07/18 08:09:40;;;;;;;7.03;2.77;;;;;;;;;;5073866;28;20212;-55
2023/07/18 08:12:08;;;;;;;7.33;2.60;;;;;;;;;;5074149;28;20202;-55
2023/07/18 08:14:37;;;;;;;6.63;2.70;;;;;;;;;;5073768;28;20551;-56
2023/07/18 08:17:03;;;;;;;6.50;2.40;;;;;;;;;;5073954;28;20275;-56
2023/07/18 08:19:31;;;;;;;4.33;2.40;;;;;;;;;;5073793;28;20206;-56
2023/07/18 08:21:57;;;;;;;7.93;2.30;;;;;;;;;;5073943;28;20225;-56
2023/07/18 08:24:23;;;;;;;6.00;2.00;;;;;;;;;;5073829;28;20179;-56
2023/07/18 08:26:50;;;;;;;6.77;2.37;;;;;;;;;;5072840;28;20207;-56
2023/07/18 08:29:21;;;;;;;8.43;2.10;;;;;;;;;;5073650;28;20620;-56
2023/07/18 08:31:48;;;;;;;4.07;1.90;;;;;;;;;;5073663;28;20277;-56
2023/07/18 08:34:15;;;;;;;6.20;2.13;;;;;;;;;;5073447;28;20235;-56
2023/07/18 08:36:42;;;;;;;6.20;1.87;;;;;;;;;;5073593;28;20259;-56
2023/07/18 08:39:08;;;;;;;5.37;2.03;;;;;;;;;;5073663;28;20204;-56
2023/07/18 08:41:34;;;;;;;5.60;2.07;;;;;;;;;;5073391;28;20195;-56
2023/07/18 08:44:00;;;;;;;7.77;2.27;;;;;;;;;;5073220;28;20232;-56
2023/07/18 08:46:28;;;;;;;6.07;2.33;;;;;;;;;;5073213;28;20667;-56
2023/07/18 08:48:54;;;;;;;4.70;2.20;;;;;;;;;;5073301;28;20205;-56
2023/07/18 08:51:21;;;;;;;4.90;2.20;;;;;;;;;;5073202;28;20198;-56
2023/07/18 08:53:47;;;;;;;5.90;2.23;;;;;;;;;;5072922;28;20277;-57
2023/07/18 08:56:14;;;;;;;4.73;2.10;;;;;;;;;;5073071;28;20196;-56
2023/07/18 08:58:40;;;;;;;4.97;2.20;;;;;;;;;;5073166;28;20566;-56
2023/07/18 09:01:09;;;;;;;4.57;2.07;;;;;;;;;;5073108;28;20199;-56
2023/07/18 09:03:36;;;;;;;5.90;1.90;;;;;;;;;;5072803;28;20226;-60
2023/07/18 09:06:02;;;;;;;4.33;1.83;;;;;;;;;;5072872;28;20673;-57
2023/07/18 09:08:31;;;;;;;7.57;2.30;;;;;;;;;;5072778;28;20269;-57
2023/07/18 09:11:01;;;;;;;5.27;2.20;;;;;;;;;;5072753;28;20276;-57
2023/07/18 09:13:27;;;;;;;3.40;1.60;;;;;;;;;;5072745;28;20199;-57
2023/07/18 09:15:53;;;;;;;4.13;2.27;;;;;;;;;;5072826;28;20206;-56
2023/07/18 09:18:19;;;;;;;6.27;2.47;;;;;;;;;;5072492;28;20601;-57
2023/07/18 09:20:46;;;;;;;5.90;1.80;;;;;;;;;;5072444;28;20229;-57
2023/07/18 09:23:14;;;;;;;5.70;1.90;;;;;;;;;;5072442;28;20207;-56
2023/07/18 09:25:40;;;;;;;5.43;2.10;;;;;;;;;;5072418;28;20612;-56
2023/07/18 09:28:09;;;;;;;4.47;2.30;;;;;;;;;;5072220;28;20199;-56
2023/07/18 09:30:35;;;;;;;4.80;2.13;;;;;;;;;;5072072;28;20226;-55
2023/07/18 09:33:03;;;;;;;4.53;2.20;;;;;;;;;;5072318;28;20259;-56
2023/07/18 09:35:29;;;;;;;6.03;2.23;;;;;;;;;;5072114;28;20229;-56
2023/07/18 09:37:56;;;;;;;4.13;2.07;;;;;;;;;;5072068;28;20200;-56
2023/07/18 09:40:22;;;;;;;4.10;2.03;;;;;;;;;;5072074;28;20233;-56
2023/07/18 09:42:50;;;;;;;4.60;2.13;;;;;;;;;;5072024;28;20260;-56
2023/07/18 09:45:17;;;;;;;4.73;2.13;;;;;;;;;;5072210;28;20263;-56
2023/07/18 09:47:43;;;;;;;4.27;2.10;;;;;;;;;;5072113;28;20209;-55
2023/07/18 09:50:10;;;;;;;4.67;2.10;;;;;;;;;;5072317;28;20257;-56
2023/07/18 09:52:39;;;;;;;6.00;2.50;;;;;;;;;;5072095;28;20203;-56
2023/07/18 09:55:09;;;;;;;4.33;2.20;;;;;;;;;;5072095;28;20240;-56
2023/07/18 09:57:37;;;;;;;5.60;2.03;;;;;;;;;;5071924;28;20631;-56
2023/07/18 10:00:05;;;;;;;5.60;2.00;;;;;;;;;;5072107;28;20196;-56
2023/07/18 10:02:34;;;;;;;5.60;2.20;;;;;;;;;;5071872;28;20222;-56
2023/07/18 10:05:02;;;;;;;2.73;1.80;;;;;;;;;;5071958;28;20215;-56
2023/07/18 10:07:29;;;;;;;4.40;1.80;;;;;;;;;;5071638;28;20289;-55
2023/07/18 10:09:55;;;;;;;7.10;2.30;;;;;;;;;;5071889;28;20688;-57
2023/07/18 10:12:22;;;;;;;5.50;1.90;;;;;;;;;;5071852;28;20191;-56
2023/07/18 10:14:50;;;;;;;5.33;1.90;;;;;;;;;;5071511;28;20237;-56
2023/07/18 10:17:16;;;;;;;;;;;;;;;;;;5071432;28;20241;-56
2023/07/18 10:19:46;;;;;;;4.70;1.77;;;;;;;;;;5071567;28;20494;-56
2023/07/18 10:22:13;;;;;;;3.73;2.13;;;;;;;;;;5071749;28;20261;-59
2023/07/18 10:24:48;;;;;;;4.30;2.10;;;;;;;;;;5071455;28;20198;-56
2023/07/18 10:27:15;;;;;;;4.00;2.00;;;;;;;;;;5071521;28;20199;-56
2023/07/18 10:30:03;;;;;;;4.23;1.80;;;;;;;;;;5071387;28;20227;-56
2023/07/18 10:32:30;;;;;;;3.47;1.90;;;;;;;;;;5071313;28;20283;-56
2023/07/18 10:34:57;;;;;;;3.93;1.90;;;;;;;;;;5071424;28;20593;-56
2023/07/18 10:37:26;;;;;;;4.93;2.20;;;;;;;;;;5071499;28;20283;-55
2023/07/18 10:39:53;;;;;;;5.87;2.00;;;;;;;;;;5071435;28;20207;-55
2023/07/18 10:42:20;;;;;;;6.60;1.90;;;;;;;;;;5071335;28;20202;-55
2023/07/18 10:44:48;;;;;;;3.60;2.00;;;;;;;;;;5071355;28;20661;-56
2023/07/18 10:47:15;;;;;;;3.80;1.77;;;;;;;;;;5071617;28;20542;-56
2023/07/18 10:49:42;;;;;;;3.60;2.20;;;;;;;;;;5073255;28;20285;-56
2023/07/18 10:52:08;;;;;;;2.87;2.10;;;;;;;;;;5075338;28;20205;-54
2023/07/18 10:54:34;;;;;;;4.80;2.10;;;;;;;;;;5074952;28;20701;-55
2023/07/18 10:57:00;;;;;;;3.90;2.30;;;;;;;;;;5075230;28;20219;-62
2023/07/18 10:59:26;;;;;;;3.57;1.83;;;;;;;;;;5075127;28;20207;-55
2023/07/18 11:01:53;;;;;;;5.03;2.23;;;;;;;;;;5075095;28;20523;-55
2023/07/18 11:04:22;;;;;;;2.67;1.90;;;;;;;;;;5074982;28;20200;-56
2023/07/18 11:06:49;;;;;;;2.50;1.70;;;;;;;;;;5074912;28;20209;-57
2023/07/18 11:09:15;;;;;;;4.37;2.17;;;;;;;;;;5074801;28;20197;-55
2023/07/18 11:11:41;;;;;;;4.17;1.80;;;;;;;;;;5074749;28;20578;-56
2023/07/18 11:14:07;;;;;;;3.43;1.83;;;;;;;;;;5074934;28;20593;-56
2023/07/18 11:16:34;;;;;;;2.17;1.63;;;;;;;;;;5074604;28;20612;-54
2023/07/18 11:19:01;;;;;;;4.67;1.87;;;;;;;;;;5074574;28;20732;-56
2023/07/18 11:21:28;;;;;;;2.83;1.63;;;;;;;;;;5074733;28;20298;-55
2023/07/18 11:23:54;;;;;;;4.70;1.70;;;;;;;;;;5074584;28;20199;-56
2023/07/18 11:26:20;;;;;;;2.57;2.00;;;;;;;;;;5074590;28;20655;-56
2023/07/18 11:28:50;;;;;;;4.00;2.37;;;;;;;;;;5074761;28;20239;-55
2023/07/18 11:31:20;;;;;;;3.87;2.03;;;;;;;;;;5074682;28;20496;-54
2023/07/18 11:33:48;;;;;;;4.43;2.27;;;;;;;;;;5074220;28;20207;-54
2023/07/18 11:36:15;;;;;;;3.33;1.63;;;;;;;;;;5074425;28;20203;-54
2023/07/18 11:38:41;;;;;;;5.10;1.93;;;;;;;;;;5074230;28;20192;-55
2023/07/18 11:41:13;;;;;;;3.07;1.87;;;;;;;;;;5074485;28;20638;-54
2023/07/18 11:43:41;;;;;;;2.20;1.70;;;;;;;;;;5074219;28;20238;-55
2023/07/18 11:46:08;;;;;;;5.20;2.20;;;;;;;;;;5074360;28;20203;-55
2023/07/18 11:48:34;;;;;;;4.93;1.80;;;;;;;;;;5074068;28;20207;-55
2023/07/18 11:51:02;;;;;;;2.80;1.60;;;;;;;;;;5074186;28;20216;-55
2023/07/18 11:53:31;;;;;;;2.30;1.70;;;;;;;;;;5073966;28;20227;-55
2023/07/18 11:55:57;;;;;;;3.27;1.73;;;;;;;;;;5074187;28;20200;-55
2023/07/18 11:58:24;;;;;;;4.47;1.70;;;;;;;;;;5074128;28;20283;-55
2023/07/18 12:00:50;;;;;;;2.90;1.80;;;;;;;;;;5072658;28;20208;-55
2023/07/18 12:03:16;;;;;;;4.43;1.80;;;;;;;;;;5073960;28;20200;-55
2023/07/18 12:05:42;;;;;;;2.97;1.77;;;;;;;;;;5073800;28;20212;-55
2023/07/18 12:08:09;;;;;;;3.77;1.87;;;;;;;;;;5073934;28;20196;-55
2023/07/18 12:10:36;;;;;;;2.03;1.70;;;;;;;;;;5073738;28;20687;-55
2023/07/18 12:13:02;;;;;;;2.93;1.83;;;;;;;;;;5072458;28;20228;-55
2023/07/18 12:15:28;;;;;;;3.13;1.90;;;;;;;;;;5073604;28;20248;-55
2023/07/18 12:17:54;;;;;;;3.70;1.90;;;;;;;;;;5073709;28;20231;-54
2023/07/18 12:20:20;;;;;;;2.53;1.80;;;;;;;;;;5073615;28;20258;-55
2023/07/18 12:22:46;;;;;;;6.73;2.07;;;;;;;;;;5073407;28;20273;-54
2023/07/18 12:25:12;;;;;;;3.10;1.80;;;;;;;;;;5073586;28;20248;-55
2023/07/18 12:27:40;;;;;;;2.60;1.60;;;;;;;;;;5073418;28;20195;-55
2023/07/18 12:30:09;;;;;;;3.93;1.80;;;;;;;;;;5073668;28;20290;-54
2023/07/18 12:32:34;;;;;;;3.57;1.67;;;;;;;;;;5073192;28;20206;-55
2023/07/18 12:35:00;;;;;;;4.47;1.70;;;;;;;;;;5073432;28;20311;-53
2023/07/18 12:37:26;;;;;;;4.50;1.60;;;;;;;;;;5073319;28;20687;-54
2023/07/18 12:39:52;;;;;;;2.17;1.70;;;;;;;;;;5073317;28;20224;-54
2023/07/18 12:42:18;;;;;;;2.47;1.67;;;;;;;;;;5072862;28;20203;-55
2023/07/18 12:44:46;;;;;;;2.00;1.40;;;;;;;;;;5073019;28;20252;-54
2023/07/18 12:47:12;;;;;;;2.40;1.40;;;;;;;;;;5073208;28;20204;-54
2023/07/18 12:49:38;;;;;;;4.50;1.70;;;;;;;;;;5072886;28;20202;-54
2023/07/18 12:52:05;;;;;;;2.00;1.33;;;;;;;;;;5073052;28;20562;-54
2023/07/18 12:54:32;;;;;;;2.77;1.60;;;;;;;;;;5072726;28;20226;-54
2023/07/18 12:56:59;;;;;;;4.33;1.50;;;;;;;;;;5072793;28;20693;-55
2023/07/18 12:59:25;;;;;;;1.80;1.37;;;;;;;;;;5072837;28;20206;-56
2023/07/18 13:01:53;;;;;;;3.27;1.40;;;;;;;;;;5072914;28;20195;-55
2023/07/18 13:04:19;;;;;;;2.83;1.63;;;;;;;;;;5072958;28;20200;-54
2023/07/18 13:06:45;;;;;;;3.07;1.67;;;;;;;;;;5072480;28;20196;-55
2023/07/18 13:09:11;;;;;;;1.93;1.47;;;;;;;;;;5072735;28;20206;-55
2023/07/18 13:11:37;;;;;;;1.93;1.47;;;;;;;;;;5072471;28;20666;-55
2023/07/18 13:14:03;;;;;;;2.13;1.43;;;;;;;;;;5072463;28;20219;-55
2023/07/18 13:16:29;;;;;;;3.57;1.53;;;;;;;;;;5072619;28;20192;-55
2023/07/18 13:18:56;;;;;;;2.77;1.47;;;;;;;;;;5072882;28;20613;-54
2023/07/18 13:21:22;;;;;;;2.10;1.50;;;;;;;;;;5072769;28;20211;-55
2023/07/18 13:23:49;;;;;;;1.83;1.50;;;;;;;;;;5072487;28;20209;-55
2023/07/18 13:26:16;;;;;;;1.63;1.40;;;;;;;;;;5072281;28;20669;-55
2023/07/18 13:28:42;;;;;;;2.93;1.50;;;;;;;;;;5072296;28;20203;-57
2023/07/18 13:31:08;;;;;;;2.47;1.47;;;;;;;;;;5072381;28;20219;-55
2023/07/18 13:33:34;;;;;;;2.17;1.40;;;;;;;;;;5071998;28;20565;-54
2023/07/18 13:36:01;;;;;;;2.47;1.70;;;;;;;;;;5061141;28;20679;-54
2023/07/18 13:38:27;;;;;;;2.63;1.60;;;;;;;;;;5071841;28;20234;-53
2023/07/18 13:40:53;;;;;;;2.93;1.50;;;;;;;;;;5072210;28;20822;-53
2023/07/18 13:43:19;;;;;;;3.10;1.70;;;;;;;;;;5071800;28;20286;-52
2023/07/18 13:45:45;;;;;;;2.47;1.50;;;;;;;;;;5071576;28;20196;-53
2023/07/18 13:48:11;;;;;;;2.67;1.40;;;;;;;;;;5072146;28;20205;-52
2023/07/18 13:50:37;;;;;;;1.50;1.30;;;;;;;;;;5071712;28;20198;-53
2023/07/18 13:53:05;;;;;;;3.13;1.43;;;;;;;;;;5072103;28;20209;-53
2023/07/18 13:55:31;;;;;;;2.07;1.50;;;;;;;;;;5071611;28;20306;-53
2023/07/18 13:57:57;;;;;;;4.90;1.43;;;;;;;;;;5071382;28;20289;-53
2023/07/18 14:00:23;;;;;;;2.20;1.67;;;;;;;;;;5068240;28;20283;-53
2023/07/18 14:02:49;;;;;;;4.43;1.50;;;;;;;;;;5071595;28;20472;-54
2023/07/18 14:05:16;;;;;;;2.80;1.57;;;;;;;;;;5071600;28;20284;-53
2023/07/18 14:07:42;;;;;;;5.07;1.70;;;;;;;;;;5071537;28;20197;-53
2023/07/18 14:10:09;;;;;;;3.17;1.50;;;;;;;;;;5071531;28;20202;-52
2023/07/18 14:12:35;;;;;;;5.80;1.67;;;;;;;;;;5071587;28;20203;-53
2023/07/18 14:15:02;;;;;;;2.17;1.37;;;;;;;;;;5071425;28;20604;-54
2023/07/18 14:17:28;;;;;;;4.00;1.27;;;;;;;;;;5071526;28;20212;-55
2023/07/18 14:19:54;;;;;;;1.83;1.47;;;;;;;;;;5071560;28;20279;-57
2023/07/18 14:22:20;;;;;;;2.70;1.53;;;;;;;;;;5071417;28;20204;-59
2023/07/18 14:24:47;;;;;;;2.60;1.60;;;;;;;;;;5070605;28;20199;-56
2023/07/18 14:27:14;;;;;;;3.03;1.60;;;;;;;;;;5071409;28;20598;-53
2023/07/18 14:29:41;;;;;;;2.00;1.50;;;;;;;;;;5071869;28;20199;-51
2023/07/18 14:32:09;;;;;;;2.00;1.33;;;;;;;;;;5071695;28;20195;-52
2023/07/18 14:34:35;;;;;;;2.83;1.47;;;;;;;;;;5071308;28;20219;-52